Time;durP1;ratioP1;P1;durP2;ratioP2;P2;SDS_P1;SDS_P2;PMS_P1;PMS_P2;Temp;Humidity;BMP_temperature;BMP_pressure;BME280_temperature;BME280_humidity;BME280_pressure;Samples;Min_cycle;Max_cycle;Signal;HPM_P1;HPM_P2
2022/05/12 00:01:08;;;;;;;12.73;1.80;;;;;;;11.34;100.00;101388.44;5072603;28;20039;-71
2022/05/12 00:03:35;;;;;;;10.80;1.52;;;;;;;11.34;100.00;101393.72;5064207;28;20500;-70
2022/05/12 00:06:00;;;;;;;13.40;1.67;;;;;;;11.30;100.00;101391.88;5066172;28;20102;-71
2022/05/12 00:08:25;;;;;;;16.10;2.50;;;;;;;11.36;100.00;101394.63;5065865;28;20426;-71
2022/05/12 00:10:51;;;;;;;13.13;1.73;;;;;;;11.30;100.00;101400.66;5062742;28;20384;-71
2022/05/12 00:13:16;;;;;;;10.13;1.95;;;;;;;11.31;100.00;101396.25;5066481;28;20386;-69
2022/05/12 00:15:42;;;;;;;16.80;1.90;;;;;;;11.29;100.00;101401.50;5061491;28;20078;-72
2022/05/12 00:18:08;;;;;;;13.07;2.47;;;;;;;11.28;100.00;101401.47;5062979;28;20035;-70
2022/05/12 00:20:37;;;;;;;11.40;1.80;;;;;;;11.31;100.00;101412.06;5066183;28;20033;-71
2022/05/12 00:23:17;;;;;;;16.63;2.33;;;;;;;11.27;100.00;101411.13;5066284;28;20025;-70
2022/05/12 00:25:47;;;;;;;14.98;2.40;;;;;;;11.36;100.00;101415.72;5058879;28;20101;-69
2022/05/12 00:28:15;;;;;;;12.98;1.85;;;;;;;11.36;100.00;101420.09;5047202;28;20040;-71
2022/05/12 00:30:41;;;;;;;10.32;1.95;;;;;;;11.36;100.00;101426.25;5071587;28;20048;-71
2022/05/12 00:33:07;;;;;;;8.95;1.90;;;;;;;11.34;100.00;101424.44;5070239;28;20032;-70
2022/05/12 00:35:33;;;;;;;9.48;1.83;;;;;;;11.36;100.00;101428.00;5064967;28;20043;-70
2022/05/12 00:37:58;;;;;;;8.75;2.03;;;;;;;11.39;100.00;101431.56;5067700;28;20025;-71
2022/05/12 00:40:24;;;;;;;12.45;1.80;;;;;;;11.37;100.00;101435.94;5075929;28;20025;-72
2022/05/12 00:42:58;;;;;;;10.60;2.17;;;;;;;11.36;100.00;101436.78;5072382;28;20486;-71
2022/05/12 00:45:30;;;;;;;7.65;1.70;;;;;;;11.37;100.00;101441.22;5068120;28;20089;-70
2022/05/12 00:47:57;;;;;;;13.20;1.85;;;;;;;11.35;100.00;101439.38;5071431;28;20110;-71
2022/05/12 00:50:28;;;;;;;9.38;1.67;;;;;;;11.36;100.00;101441.19;5065136;28;20033;-70
2022/05/12 00:52:54;;;;;;;7.25;1.55;;;;;;;11.24;100.00;101436.50;5065953;28;20021;-72
2022/05/12 00:55:27;;;;;;;8.93;2.20;;;;;;;11.27;100.00;101436.56;5065998;28;20567;-71
2022/05/12 00:57:55;;;;;;;9.27;1.83;;;;;;;11.33;100.00;101438.44;5066098;28;20468;-72
2022/05/12 01:00:23;;;;;;;6.72;1.75;;;;;;;11.30;100.00;101436.66;5068780;28;20123;-71
2022/05/12 01:02:53;;;;;;;12.73;2.10;;;;;;;11.26;100.00;101429.53;5065414;28;20043;-72
2022/05/12 01:05:19;;;;;;;10.60;1.88;;;;;;;11.32;100.00;101444.59;5065788;28;20032;-70
2022/05/12 01:07:44;;;;;;;12.75;2.50;;;;;;;11.30;100.00;101441.94;5064077;28;20074;-72
2022/05/12 01:10:10;;;;;;;18.25;3.08;;;;;;;11.27;100.00;101441.84;5067357;28;20483;-70
2022/05/12 01:12:44;;;;;;;6.47;1.70;;;;;;;11.13;100.00;101445.03;5066209;28;20026;-71
2022/05/12 01:15:10;;;;;;;7.32;1.92;;;;;;;11.16;100.00;101448.59;5064781;28;20035;-70
2022/05/12 01:17:36;;;;;;;5.38;2.03;;;;;;;11.17;100.00;101458.31;5065607;28;20056;-71
2022/05/12 01:20:02;;;;;;;6.30;2.10;;;;;;;11.17;100.00;101455.66;5066538;28;20071;-71
2022/05/12 01:22:56;;;;;;;10.45;2.28;;;;;;;11.12;100.00;101453.81;5066057;28;20440;-72
2022/05/12 01:25:25;;;;;;;8.07;2.78;;;;;;;11.10;100.00;101460.78;5067068;28;20408;-71
2022/05/12 01:27:51;;;;;;;7.63;2.55;;;;;;;11.03;100.00;101458.84;5065610;28;20033;-71
2022/05/12 01:30:19;;;;;;;10.52;2.58;;;;;;;11.03;100.00;101448.31;5068285;28;20028;-71
2022/05/12 01:32:48;;;;;;;9.25;3.03;;;;;;;11.05;100.00;101457.13;5069580;28;20020;-70
2022/05/12 01:35:17;;;;;;;9.23;2.67;;;;;;;11.02;100.00;101457.06;5068470;28;20388;-71
2022/05/12 01:37:44;;;;;;;10.52;2.50;;;;;;;11.02;100.00;101454.44;5065370;28;20033;-71
2022/05/12 01:40:12;;;;;;;15.50;2.88;;;;;;;11.05;100.00;101462.41;5074309;28;20041;-69
2022/05/12 01:42:38;;;;;;;8.75;3.17;;;;;;;11.05;100.00;101465.03;5067353;28;20020;-71
2022/05/12 01:45:06;;;;;;;4.82;3.22;;;;;;;11.06;100.00;101469.44;5064959;28;20476;-70
2022/05/12 01:47:33;;;;;;;11.00;3.33;;;;;;;11.09;100.00;101474.78;5068730;28;20083;-71
2022/05/12 01:49:58;;;;;;;6.20;2.67;;;;;;;11.10;100.00;101481.84;5065915;28;20028;-71
2022/05/12 01:52:23;;;;;;;8.45;2.95;;;;;;;11.11;100.00;101483.63;5065508;28;20036;-72
2022/05/12 01:54:49;;;;;;;12.45;3.22;;;;;;;11.11;100.00;101481.00;5065091;28;20442;-70
2022/05/12 01:57:14;;;;;;;14.40;3.53;;;;;;;11.09;100.00;101480.06;5068535;28;20059;-70
2022/05/12 01:59:40;;;;;;;11.68;3.13;;;;;;;11.07;100.00;101475.59;5064067;28;20155;-71
2022/05/12 02:02:05;;;;;;;7.93;3.33;;;;;;;11.07;100.00;101481.78;5064637;28;20035;-71
2022/05/12 02:04:30;;;;;;;7.43;3.25;;;;;;;11.03;100.00;101479.91;5067975;28;20115;-71
2022/05/12 02:06:55;;;;;;;8.95;3.58;;;;;;;11.07;100.00;101487.03;5066585;28;20112;-73
2022/05/12 02:09:21;;;;;;;10.68;3.42;;;;;;;11.07;100.00;101488.75;5064556;28;20024;-72
2022/05/12 02:11:46;;;;;;;12.25;4.57;;;;;;;11.06;100.00;101506.31;5066592;28;20105;-70
2022/05/12 02:14:12;;;;;;;9.93;4.30;;;;;;;11.12;100.00;101511.75;5066195;28;20028;-71
2022/05/12 02:16:38;;;;;;;6.20;3.50;;;;;;;11.05;100.00;101508.94;5066554;28;20104;-71
2022/05/12 02:19:05;;;;;;;7.40;3.47;;;;;;;11.07;100.00;101505.47;5064006;28;20499;-70
2022/05/12 02:21:32;;;;;;;19.42;4.00;;;;;;;11.06;100.00;101510.72;5068240;28;20082;-72
2022/05/12 02:23:57;;;;;;;7.20;3.45;;;;;;;11.06;100.00;101511.59;5065214;28;20082;-71
2022/05/12 02:26:22;;;;;;;9.40;3.88;;;;;;;11.10;100.00;101513.44;5065215;28;20045;-72
2022/05/12 02:28:48;;;;;;;8.10;3.70;;;;;;;11.13;100.00;101516.16;5065903;28;20048;-70
2022/05/12 02:31:13;;;;;;;11.50;3.75;;;;;;;11.11;100.00;101517.88;5066184;28;20577;-72
2022/05/12 02:33:39;;;;;;;7.07;3.63;;;;;;;11.14;100.00;101520.56;5065323;28;20022;-70
2022/05/12 02:36:05;;;;;;;8.95;3.53;;;;;;;11.16;100.00;101527.63;5065607;28;20124;-71
2022/05/12 02:38:30;;;;;;;11.13;4.03;;;;;;;11.15;100.00;101526.75;5068321;28;20024;-71
2022/05/12 02:40:56;;;;;;;14.88;3.53;;;;;;;11.14;100.00;101528.47;5063413;28;20036;-70
2022/05/12 02:43:24;;;;;;;9.93;4.00;;;;;;;11.20;100.00;101534.75;5066761;28;20055;-71
2022/05/12 02:45:50;;;;;;;8.40;3.72;;;;;;;11.19;100.00;101543.50;5064608;28;20032;-71
2022/05/12 02:48:17;;;;;;;12.52;3.78;;;;;;;11.17;100.00;101545.22;5064210;28;20029;-70
2022/05/12 02:50:42;;;;;;;11.80;3.33;;;;;;;11.13;100.00;101545.13;5065086;28;20031;-71
2022/05/12 02:53:08;;;;;;;10.48;3.10;;;;;;;11.09;100.00;101543.25;5068224;28;20111;-72
2022/05/12 02:55:33;;;;;;;8.30;3.67;;;;;;;11.06;100.00;101543.19;5065806;28;20565;-71
2022/05/12 02:57:58;;;;;;;8.18;3.30;;;;;;;11.07;100.00;101544.97;5066299;28;20029;-71
2022/05/12 03:00:23;;;;;;;14.57;4.10;;;;;;;11.09;100.00;101556.44;5064270;28;20025;-71
2022/05/12 03:02:49;;;;;;;13.48;3.80;;;;;;;11.11;100.00;101552.13;5067854;28;20024;-72
2022/05/12 03:05:15;;;;;;;12.73;3.80;;;;;;;11.03;100.00;101553.66;5066628;28;20036;-70
2022/05/12 03:07:41;;;;;;;12.02;3.67;;;;;;;11.09;100.00;101558.19;5066378;28;20024;-70
2022/05/12 03:10:08;;;;;;;12.73;4.18;;;;;;;11.05;100.00;101556.34;5066120;28;20028;-70
2022/05/12 03:12:33;;;;;;;10.10;3.42;;;;;;;11.03;100.00;101561.56;5066540;28;20104;-70
2022/05/12 03:15:00;;;;;;;10.82;3.63;;;;;;;11.05;100.00;101562.47;5061473;28;20107;-71
2022/05/12 03:17:26;;;;;;;15.75;5.45;;;;;;;11.01;100.00;101571.16;5064381;28;20098;-71
2022/05/12 03:19:51;;;;;;;12.13;4.07;;;;;;;11.02;100.00;101578.22;5067074;28;20032;-70
2022/05/12 03:22:17;;;;;;;11.80;4.45;;;;;;;10.98;100.00;101576.34;5065499;28;20062;-71
2022/05/12 03:24:42;;;;;;;10.73;4.70;;;;;;;10.96;100.00;101578.06;5062453;28;20020;-70
2022/05/12 03:27:07;;;;;;;8.48;3.75;;;;;;;10.96;100.00;101583.31;5063379;28;20557;-70
2022/05/12 03:29:32;;;;;;;8.60;3.72;;;;;;;10.96;100.00;101584.22;5063393;28;20420;-71
2022/05/12 03:31:58;;;;;;;7.40;3.42;;;;;;;10.92;100.00;101589.31;5064099;28;20028;-72
2022/05/12 03:34:23;;;;;;;9.95;3.58;;;;;;;10.92;100.00;101589.31;5064221;28;20551;-71
2022/05/12 03:36:48;;;;;;;7.20;3.88;;;;;;;10.92;100.00;101587.59;5064281;28;20028;-70
2022/05/12 03:39:14;;;;;;;7.43;3.65;;;;;;;10.85;100.00;101596.19;5065792;28;20380;-71
2022/05/12 03:41:39;;;;;;;10.45;3.92;;;;;;;10.85;100.00;101595.28;5071934;28;20385;-70
2022/05/12 03:46:48;;;;;;;12.48;4.00;;;;;;;10.86;100.00;101604.97;5065798;28;20086;-70
2022/05/12 03:49:14;;;;;;;10.15;3.65;;;;;;;10.81;100.00;101610.09;5061987;28;20020;-69
2022/05/12 03:51:39;;;;;;;13.80;4.13;;;;;;;10.73;100.00;101609.91;5063649;28;20479;-70
2022/05/12 03:54:05;;;;;;;6.10;3.75;;;;;;;10.70;100.00;101612.47;5062692;28;20086;-70
2022/05/12 03:56:32;;;;;;;8.02;3.75;;;;;;;10.70;100.00;101623.00;5065688;28;20028;-70
2022/05/12 03:58:57;;;;;;;11.73;3.70;;;;;;;10.68;100.00;101618.53;5064128;28;20028;-71
2022/05/12 04:01:23;;;;;;;11.48;4.03;;;;;;;10.64;100.00;101617.53;5066416;28;20054;-71
2022/05/12 04:03:48;;;;;;;8.88;4.13;;;;;;;10.65;100.00;101614.06;5064917;28;20039;-71
2022/05/12 04:06:14;;;;;;;16.92;4.40;;;;;;;10.65;100.00;101619.31;5064182;28;20031;-71
2022/05/12 04:08:40;;;;;;;12.80;3.75;;;;;;;10.63;100.00;101626.28;5066280;28;20021;-70
2022/05/12 04:11:07;;;;;;;15.18;4.25;;;;;;;10.66;100.00;101636.88;5062092;28;20041;-72
2022/05/12 04:13:33;;;;;;;11.23;3.97;;;;;;;10.66;100.00;101631.63;5063557;28;20630;-70
2022/05/12 04:15:58;;;;;;;7.97;3.72;;;;;;;10.66;100.00;101633.38;5065796;28;20024;-71
2022/05/12 04:18:23;;;;;;;12.65;3.92;;;;;;;10.68;100.00;101629.06;5066451;28;20031;-71
2022/05/12 04:20:49;;;;;;;12.38;3.70;;;;;;;10.71;100.00;101637.03;5071234;28;20078;-70
2022/05/12 04:23:14;;;;;;;9.85;4.18;;;;;;;10.70;100.00;101637.88;5068152;28;20390;-71
2022/05/12 04:25:40;;;;;;;10.05;4.30;;;;;;;10.66;100.00;101641.25;5063534;28;20057;-71
2022/05/12 04:28:05;;;;;;;10.95;3.63;;;;;;;10.74;100.00;101639.75;5068125;28;20062;-70
2022/05/12 04:30:30;;;;;;;12.65;4.72;;;;;;;10.71;100.00;101640.53;5070767;28;20035;-72
2022/05/12 04:35:09;;;;;;;10.25;3.88;;;;;;;10.70;100.00;101644.03;5070288;28;20032;-70
2022/05/12 04:35:42;;;;;;;9.32;3.65;;;;;;;10.75;100.00;101650.31;5070963;28;20036;-71
2022/05/12 04:38:08;;;;;;;11.85;3.88;;;;;;;10.75;100.00;101657.31;5072239;28;20076;-70
2022/05/12 04:40:33;;;;;;;12.45;3.67;;;;;;;10.75;100.00;101659.97;5069655;28;20036;-70
2022/05/12 04:42:59;;;;;;;10.93;4.10;;;;;;;10.78;100.00;101668.84;5071271;28;20021;-71
2022/05/12 04:45:29;;;;;;;9.77;3.60;;;;;;;10.76;100.00;101667.03;5064714;28;20056;-70
2022/05/12 04:47:54;;;;;;;13.43;4.32;;;;;;;10.79;100.00;101669.72;5062512;28;20111;-72
2022/05/12 04:50:26;;;;;;;11.23;4.82;;;;;;;10.80;100.00;101672.41;5065908;28;20034;-71
2022/05/12 04:52:53;;;;;;;14.18;3.78;;;;;;;10.84;100.00;101661.94;5065501;28;20646;-71
2022/05/12 04:55:19;;;;;;;7.57;3.20;;;;;;;10.90;100.00;101672.66;5064192;28;20476;-74
2022/05/12 04:57:48;;;;;;;11.32;4.07;;;;;;;10.91;100.00;101680.59;5066036;28;20024;-76
2022/05/12 05:00:18;;;;;;;12.85;3.95;;;;;;;11.10;100.00;101678.50;5062589;28;20517;-75
2022/05/12 05:02:43;;;;;;;9.23;3.92;;;;;;;11.19;100.00;101683.13;5078402;28;20029;-74
2022/05/12 05:05:10;;;;;;;8.60;3.50;;;;;;;11.25;100.00;101685.94;5062298;28;20033;-74
2022/05/12 05:07:35;;;;;;;15.65;3.80;;;;;;;11.27;100.00;101684.22;5069383;28;20031;-74
2022/05/12 05:10:00;;;;;;;12.05;3.92;;;;;;;11.28;100.00;101688.66;5070908;28;20099;-75
2022/05/12 05:12:26;;;;;;;13.98;3.20;;;;;;;11.21;100.00;101694.59;5070436;28;20036;-75
2022/05/12 05:14:52;;;;;;;15.70;4.00;;;;;;;11.24;100.00;101699.97;5071315;28;20025;-78
2022/05/12 05:17:18;;;;;;;11.77;4.03;;;;;;;11.26;100.00;101699.16;5072872;28;20035;-75
2022/05/12 05:19:43;;;;;;;8.75;3.20;;;;;;;11.27;100.00;101695.69;5075654;28;20433;-75
2022/05/12 05:22:08;;;;;;;7.05;2.85;;;;;;;11.29;100.00;101708.88;5074769;28;20024;-77
2022/05/12 05:24:34;;;;;;;13.15;3.42;;;;;;;11.29;100.00;101711.53;5073721;28;20467;-74
2022/05/12 05:27:00;;;;;;;8.93;3.40;;;;;;;11.35;100.00;101709.03;5070938;28;20075;-74
2022/05/12 05:29:25;;;;;;;7.93;3.10;;;;;;;11.39;100.00;101707.38;5073288;28;20479;-73
2022/05/12 05:31:51;;;;;;;8.32;3.63;;;;;;;11.46;100.00;101715.50;5074995;28;20033;-76
2022/05/12 05:34:16;;;;;;;5.55;3.28;;;;;;;11.50;100.00;101715.59;5071669;28;20044;-76
2022/05/12 05:36:42;;;;;;;9.32;3.30;;;;;;;11.53;100.00;101713.94;5074454;28;20576;-75
2022/05/12 05:39:07;;;;;;;8.65;3.50;;;;;;;11.59;100.00;101718.47;5073948;28;20033;-75
2022/05/12 05:41:35;;;;;;;9.82;3.63;;;;;;;11.66;100.00;101724.81;5075036;28;20395;-76
2022/05/12 05:44:01;;;;;;;9.13;3.30;;;;;;;11.70;100.00;101731.94;5069959;28;20990;-78
2022/05/12 05:46:26;;;;;;;10.23;3.58;;;;;;;11.74;100.00;101742.59;5073443;28;20032;-75
2022/05/12 05:48:51;;;;;;;5.57;3.22;;;;;;;11.83;100.00;101741.94;5071465;28;20021;-76
2022/05/12 05:54:00;;;;;;;;;;;;;;;11.90;100.00;101756.19;5072934;28;20047;-78
2022/05/12 05:56:26;;;;;;;7.83;2.80;;;;;;;11.91;100.00;101764.13;5072641;28;19920;-76
2022/05/12 05:58:51;;;;;;;6.00;2.92;;;;;;;11.94;100.00;101758.97;5074308;28;20297;-77
2022/05/12 06:01:17;;;;;;;12.13;3.45;;;;;;;11.95;100.00;101759.84;5074540;28;20029;-77
2022/05/12 06:03:46;;;;;;;7.78;2.85;;;;;;;11.97;100.00;101763.44;5072988;28;20417;-77
2022/05/12 06:06:11;;;;;;;10.43;3.45;;;;;;;12.00;100.00;101766.13;5072703;28;20028;-79
2022/05/12 06:08:37;;;;;;;7.65;3.03;;;;;;;12.05;100.00;101776.81;5073077;28;20023;-78
2022/05/12 06:11:05;;;;;;;8.50;2.70;;;;;;;12.04;100.00;101781.19;5071817;28;20025;-79
2022/05/12 06:13:32;;;;;;;9.60;2.65;;;;;;;12.10;100.00;101783.09;5072462;28;20036;-79
2022/05/12 06:15:58;;;;;;;9.07;2.88;;;;;;;12.21;100.00;101792.19;5073417;28;20372;-77
2022/05/12 06:18:24;;;;;;;15.02;3.70;;;;;;;12.26;100.00;101801.13;5073397;28;20029;-77
2022/05/12 06:20:50;;;;;;;9.43;3.10;;;;;;;12.31;100.00;101801.22;5067002;28;20048;-78
2022/05/12 06:23:16;;;;;;;9.77;2.55;;;;;;;12.37;100.00;101798.75;5070819;28;20037;-76
2022/05/12 06:25:42;;;;;;;9.52;2.95;;;;;;;12.42;100.00;101805.00;5069644;28;20101;-78
2022/05/12 06:28:08;;;;;;;6.75;2.33;;;;;;;12.46;100.00;101806.84;5071703;28;20032;-77
2022/05/12 06:30:34;;;;;;;10.65;2.72;;;;;;;12.51;100.00;101809.63;5069990;28;20090;-77
2022/05/12 06:33:00;;;;;;;8.40;2.17;;;;;;;12.62;100.00;101817.81;5072308;28;20026;-76
2022/05/12 06:35:26;;;;;;;10.60;2.22;;;;;;;12.67;100.00;101816.19;5073293;28;20020;-77
2022/05/12 06:37:51;;;;;;;8.27;2.28;;;;;;;12.72;100.00;101824.19;5073108;28;20032;-76
2022/05/12 06:40:18;;;;;;;7.50;2.33;;;;;;;12.76;100.00;101826.94;5072073;28;20482;-78
2022/05/12 06:42:43;;;;;;;7.88;2.10;;;;;;;12.79;100.00;101827.03;5073604;28;20464;-77
2022/05/12 06:45:11;;;;;;;5.30;2.00;;;;;;;12.86;100.00;101835.06;5072277;28;20040;-76
2022/05/12 06:47:36;;;;;;;6.20;1.92;;;;;;;12.98;100.00;101836.25;5073023;28;20028;-76
2022/05/12 06:50:03;;;;;;;10.48;1.90;;;;;;;12.97;100.00;101836.22;5073286;28;20096;-77
2022/05/12 06:52:29;;;;;;;7.28;2.10;;;;;;;13.02;100.00;101837.19;5073139;28;20460;-77
2022/05/12 06:54:55;;;;;;;8.00;2.00;;;;;;;13.03;100.00;101840.75;5072028;28;20043;-78
2022/05/12 06:57:22;;;;;;;9.68;2.70;;;;;;;13.09;100.00;101831.22;5072843;28;20036;-71
2022/05/12 06:59:49;;;;;;;7.15;1.83;;;;;;;13.15;100.00;101833.97;5072326;28;20112;-74
2022/05/12 07:02:14;;;;;;;6.25;1.52;;;;;;;13.16;99.02;101830.47;5071107;28;20105;-73
2022/05/12 07:04:39;;;;;;;6.93;2.33;;;;;;;13.18;99.07;101843.72;5073616;28;20103;-72
2022/05/12 07:07:05;;;;;;;7.22;2.17;;;;;;;13.21;98.17;101841.16;5073040;28;20024;-73
2022/05/12 07:09:31;;;;;;;6.40;1.85;;;;;;;13.22;97.19;101844.69;5072977;28;20013;-73
2022/05/12 07:11:57;;;;;;;7.22;1.88;;;;;;;13.26;98.29;101841.25;5072411;28;20028;-78
2022/05/12 07:14:22;;;;;;;6.10;1.77;;;;;;;13.25;97.28;101842.09;5073520;28;20032;-78
2022/05/12 07:16:48;;;;;;;5.30;1.50;;;;;;;13.28;97.71;101852.75;5072156;28;20029;-78
2022/05/12 07:19:15;;;;;;;10.10;2.05;;;;;;;13.31;97.99;101852.84;5072009;28;20020;-76
2022/05/12 07:27:16;;;;;;;7.60;1.80;;;;;;;13.46;94.19;101858.47;5073481;28;20183;-77
2022/05/12 07:29:42;;;;;;;7.05;1.85;;;;;;;13.52;95.45;101862.09;5073255;28;20512;-76
2022/05/12 07:32:08;;;;;;;8.63;1.92;;;;;;;13.62;94.57;101866.72;5073297;28;20028;-76
2022/05/12 07:34:33;;;;;;;8.50;1.92;;;;;;;13.70;92.33;101866.88;5072171;28;20028;-77
2022/05/12 07:36:59;;;;;;;4.63;1.50;;;;;;;13.79;93.95;101867.94;5072970;28;20028;-77
2022/05/12 07:39:28;;;;;;;5.15;1.60;;;;;;;13.91;92.88;101877.88;5070964;28;20091;-77
2022/05/12 07:41:55;;;;;;;6.80;1.25;;;;;;;13.92;90.26;101873.50;5071445;28;20028;-76
2022/05/12 07:44:20;;;;;;;7.72;1.63;;;;;;;13.92;88.30;101868.19;5070533;28;20369;-77
2022/05/12 07:46:47;;;;;;;3.30;1.63;;;;;;;13.95;88.60;101879.72;5071692;28;20032;-76
2022/05/12 07:49:14;;;;;;;3.50;1.05;;;;;;;14.04;89.26;101884.31;5073076;28;20108;-72
2022/05/12 07:51:39;;;;;;;5.43;1.55;;;;;;;14.11;88.29;101872.97;5071916;28;20020;-72
2022/05/12 07:54:04;;;;;;;5.95;1.20;;;;;;;14.26;90.12;101882.06;5071724;28;20043;-71
2022/05/12 07:56:30;;;;;;;4.63;1.48;;;;;;;14.34;89.26;101878.66;5072811;28;20040;-73
2022/05/12 07:58:57;;;;;;;6.65;1.58;;;;;;;14.49;89.57;101878.03;5071473;28;20021;-72
2022/05/12 08:01:24;;;;;;;4.55;1.10;;;;;;;14.45;84.11;101883.28;5071652;28;20361;-76
2022/05/12 08:03:51;;;;;;;3.72;1.30;;;;;;;14.61;86.41;101887.97;5072705;28;20024;-76
2022/05/12 08:06:17;;;;;;;9.75;1.33;;;;;;;14.54;84.57;101879.88;5072812;28;20044;-75
2022/05/12 08:08:45;;;;;;;4.88;1.27;;;;;;;14.57;84.26;101879.91;5071062;28;20158;-76
2022/05/12 08:11:10;;;;;;;5.47;1.45;;;;;;;14.66;84.26;101894.28;5071450;28;20028;-75
2022/05/12 08:13:37;;;;;;;6.28;1.17;;;;;;;14.76;82.36;101881.16;5072453;28;20432;-76
2022/05/12 08:16:04;;;;;;;7.72;1.30;;;;;;;14.71;81.67;101889.03;5079537;28;20529;-75
2022/05/12 08:18:31;;;;;;;3.00;0.93;;;;;;;14.67;81.65;101877.47;5076560;28;20119;-77
2022/05/12 08:20:57;;;;;;;14.15;1.30;;;;;;;14.74;81.50;101878.47;5072064;28;20372;-77
2022/05/12 08:23:23;;;;;;;5.70;1.30;;;;;;;14.78;78.99;101877.66;5072708;28;20033;-76
2022/05/12 08:25:50;;;;;;;3.22;1.27;;;;;;;14.92;80.19;101879.63;5072642;28;20053;-77
2022/05/12 08:28:18;;;;;;;7.22;1.30;;;;;;;15.08;79.92;101888.72;5072637;28;20031;-75
2022/05/12 08:30:45;;;;;;;3.67;1.30;;;;;;;15.03;76.57;101888.66;5072597;28;20033;-76
2022/05/12 08:33:11;;;;;;;2.90;1.05;;;;;;;15.01;76.29;101887.72;5071705;28;20518;-76
2022/05/12 08:35:37;;;;;;;5.15;1.00;;;;;;;15.11;75.67;101887.00;5072696;28;20024;-76
2022/05/12 08:38:03;;;;;;;3.92;0.88;;;;;;;15.16;75.46;101890.59;5071321;28;20097;-75
2022/05/12 08:40:40;;;;;;;5.68;1.20;;;;;;;15.27;74.97;101905.78;5070774;28;20082;-76
2022/05/12 08:43:13;;;;;;;5.22;1.20;;;;;;;15.32;71.45;101912.03;5071490;28;20135;-77
2022/05/12 08:45:39;;;;;;;5.78;1.92;;;;;;;15.30;72.75;101908.47;5072663;28;20055;-78
2022/05/12 08:48:06;;;;;;;7.38;1.30;;;;;;;15.30;71.08;101911.13;5072802;28;20048;-77
2022/05/12 08:50:33;;;;;;;5.85;1.25;;;;;;;15.34;70.53;101913.84;5074837;28;20093;-75
2022/05/12 08:53:01;;;;;;;4.63;1.00;;;;;;;15.50;71.17;101916.69;5075031;28;20066;-77
2022/05/12 08:55:35;;;;;;;4.65;0.90;;;;;;;15.71;69.79;101917.84;5075723;28;20464;-76
2022/05/12 08:58:14;;;;;;;4.03;0.82;;;;;;;15.71;68.84;101908.13;5085724;28;20434;-76
2022/05/12 09:00:58;;;;;;;6.03;0.90;;;;;;;15.85;71.11;101916.28;5085880;28;20055;-76
2022/05/12 09:03:51;;;;;;;5.80;1.15;;;;;;;16.03;68.80;101912.94;5075439;28;20033;-77
2022/05/12 09:06:23;;;;;;;4.60;1.20;;;;;;;15.98;68.33;101912.03;5073422;28;20040;-77
2022/05/12 09:09:10;;;;;;;7.00;1.40;;;;;;;15.89;68.80;101909.28;5076337;28;20020;-77
2022/05/12 09:11:45;;;;;;;2.97;1.20;;;;;;;15.97;71.22;101924.41;5074534;28;20123;-78
2022/05/12 09:14:27;;;;;;;6.00;1.33;;;;;;;15.96;68.08;101908.47;5074203;28;20020;-77
2022/05/12 09:16:53;;;;;;;2.33;1.20;;;;;;;15.98;69.08;101918.22;5075323;28;20039;-77
2022/05/12 09:19:19;;;;;;;3.75;1.30;;;;;;;16.02;68.63;101924.47;5075828;28;20017;-78
2022/05/12 09:21:45;;;;;;;12.27;1.35;;;;;;;16.29;69.16;101912.34;5074653;28;20017;-77
2022/05/12 09:24:11;;;;;;;4.28;1.23;;;;;;;16.57;67.39;101917.94;5073743;28;20031;-76
2022/05/12 09:26:52;;;;;;;4.68;1.40;;;;;;;16.65;65.33;101922.41;5074534;28;20131;-78
2022/05/12 09:29:24;;;;;;;2.17;1.08;;;;;;;16.71;64.33;101926.91;5074526;28;20037;-77
2022/05/12 09:31:53;;;;;;;4.72;1.58;;;;;;;16.61;62.51;101914.44;5074573;28;20488;-77
2022/05/12 09:34:21;;;;;;;5.95;1.17;;;;;;;16.81;65.57;101925.22;5063235;28;20025;-77
2022/05/12 09:36:46;;;;;;;4.28;1.13;;;;;;;16.90;61.38;101919.13;5074363;28;20384;-77
2022/05/12 09:39:32;;;;;;;5.75;1.80;;;;;;;16.88;61.28;101918.19;5074267;28;20025;-79
2022/05/12 09:41:57;;;;;;;5.38;1.30;;;;;;;16.99;60.66;101911.22;5074172;28;20036;-76
2022/05/12 09:44:27;;;;;;;7.57;1.48;;;;;;;17.02;61.29;101901.50;5075001;28;20395;-75
2022/05/12 09:46:59;;;;;;;7.53;1.42;;;;;;;17.27;61.03;101911.38;5057473;28;20024;-76
2022/05/12 09:49:34;;;;;;;6.63;1.33;;;;;;;17.34;59.92;101908.75;5074752;28;20072;-76
2022/05/12 09:52:23;;;;;;;7.10;1.50;;;;;;;17.53;60.76;101911.53;5073909;28;20419;-77
2022/05/12 09:55:09;;;;;;;5.10;1.17;;;;;;;17.59;58.35;101911.53;5073131;28;20024;-78
2022/05/12 09:57:35;;;;;;;6.18;1.15;;;;;;;17.81;60.06;101919.63;5074910;28;20033;-76
2022/05/12 10:00:04;;;;;;;6.90;1.40;;;;;;;17.77;58.00;101918.75;5072314;28;20032;-77
2022/05/12 10:08:25;;;;;;;4.80;1.20;;;;;;;17.50;55.26;101920.38;5075093;28;20047;-77
2022/05/12 10:11:08;;;;;;;4.72;0.90;;;;;;;17.56;54.67;101913.31;5073558;28;20021;-77
2022/05/12 10:13:50;;;;;;;5.80;1.10;;;;;;;17.15;55.89;101922.84;5074355;28;20497;-77
2022/05/12 10:16:22;;;;;;;3.83;0.98;;;;;;;17.18;57.65;101922.84;5073171;28;20024;-76
2022/05/12 10:18:54;;;;;;;3.05;0.93;;;;;;;17.26;56.75;101920.25;5071974;28;20382;-75
2022/05/12 10:21:23;;;;;;;4.72;1.52;;;;;;;17.47;59.45;101923.03;5072611;28;20508;-76
2022/05/12 10:24:06;;;;;;;3.75;1.10;;;;;;;17.80;58.62;101924.06;5071562;28;20035;-76
2022/05/12 10:26:38;;;;;;;3.85;1.33;;;;;;;17.81;57.25;101919.63;5073733;28;20040;-77
2022/05/12 10:29:32;;;;;;;6.60;1.42;;;;;;;17.74;56.47;101920.50;5073899;28;20441;-76
2022/05/12 10:32:06;;;;;;;3.65;1.05;;;;;;;17.72;55.83;101920.50;5070186;28;20070;-77
2022/05/12 10:34:43;;;;;;;5.13;1.17;;;;;;;17.81;57.48;101915.22;5072970;28;20028;-76
2022/05/12 10:37:31;;;;;;;5.07;1.27;;;;;;;18.04;56.54;101917.06;5072034;28;20037;-78
2022/05/12 10:40:16;;;;;;;5.00;1.08;;;;;;;17.97;53.98;101926.84;5074071;28;20487;-77
2022/05/12 10:43:29;;;;;;;3.17;1.15;;;;;;;17.83;54.80;101917.88;5074274;28;20468;-78
2022/05/12 10:46:01;;;;;;;2.88;0.90;;;;;;;17.73;54.62;101916.94;5027101;28;20400;-78
2022/05/12 10:48:43;;;;;;;4.95;1.65;;;;;;;17.60;54.34;101912.44;5072334;28;20102;-81
2022/05/12 10:51:18;;;;;;;5.97;1.10;;;;;;;17.77;54.52;101913.41;5073769;28;20086;-77
2022/05/12 10:54:02;;;;;;;4.57;1.20;;;;;;;18.10;56.68;101914.44;5064170;28;20033;-77
2022/05/12 10:56:27;;;;;;;;;;;;;;;17.99;54.45;101910.84;5073057;28;20063;-77
2022/05/12 10:59:30;;;;;;;3.03;1.27;;;;;;;18.05;52.99;101905.53;5074083;28;19967;-77
2022/05/12 11:02:02;;;;;;;4.65;1.42;;;;;;;17.96;53.03;101918.81;5071295;28;20456;-78
2022/05/12 11:04:38;;;;;;;4.13;1.70;;;;;;;17.97;53.55;101904.63;5071552;28;20043;-78
2022/05/12 11:07:08;;;;;;;6.13;1.35;;;;;;;18.13;52.81;101906.44;5072544;28;20032;-77
2022/05/12 11:09:43;;;;;;;1.73;0.63;;;;;;;18.40;50.89;101910.03;5072674;28;20360;-77
2022/05/12 11:12:39;;;;;;;2.22;0.68;;;;;;;18.34;49.45;101907.38;5072809;28;20369;-78
2022/05/12 11:15:10;;;;;;;1.20;0.98;;;;;;;18.09;48.63;101894.00;5068261;28;20059;-76
2022/05/12 11:17:49;;;;;;;5.50;0.90;;;;;;;17.79;48.91;101900.97;5072501;28;20105;-76
2022/05/12 11:20:32;;;;;;;3.00;0.90;;;;;;;18.14;51.14;101894.91;5072188;28;20025;-75
2022/05/12 11:23:25;;;;;;;3.07;0.80;;;;;;;18.18;51.55;101907.34;5061962;28;20055;-78
2022/05/12 11:26:00;;;;;;;4.97;1.00;;;;;;;18.42;51.99;101899.38;5073265;28;20046;-79
2022/05/12 11:31:38;;;;;;;4.38;0.80;;;;;;;18.91;50.36;101904.75;5070492;28;20046;-78
2022/05/12 11:34:08;;;;;;;2.60;0.68;;;;;;;19.27;47.83;101894.00;5073862;28;20033;-78
2022/05/12 11:36:47;;;;;;;3.25;0.88;;;;;;;19.25;47.07;101895.78;5081755;28;20036;-76
2022/05/12 11:39:31;;;;;;;3.85;0.70;;;;;;;19.28;43.83;101906.47;5071852;28;20024;-77
2022/05/12 11:42:14;;;;;;;4.20;0.90;;;;;;;19.25;43.42;101885.09;5070763;28;20028;-77
2022/05/12 11:45:24;;;;;;;3.40;0.80;;;;;;;19.30;44.89;101891.31;5073459;28;20032;-77
2022/05/12 11:48:30;;;;;;;3.75;0.82;;;;;;;19.23;45.27;101900.25;5070449;28;20032;-77